Burns Municipal Airport
KBNO : now visible

Airfield :











YOU CAN JOIN US ON...

 
LOGIN :

Register | Disclaimer

   EN    FR    IT 

 









Legend :    VFR   Marginal VFR   IFR   Intensive IFR   Very Intensive IFR
Visi :
Ceiling :
>= 8 km
>= 3000ft
5 to 8 km
1000 to 3000 ft
1500m to 5 km
500 to 1000 ft
800 to 1500m
200 to 500 ft
< 800m
< 200 ft
Symbols :   Thunderstorms  Fog  Heavy snow  Heavy precipitations  Wind > 20 kt







- Airport Elevation : 4148 ft


KBNO - Burns Municipal

CURRENT METAR :
  • 221853Z AUTO 35019G25KT 10SM FEW039 BKN095 OVC110 14/04 A2983 RMK AO2 PK WND 01027/1832 SLP090 T01390044

EXPIRED METARs :
  • 221753Z AUTO 36014G23KT 10SM FEW039 OVC095 12/04 A2983 RMK AO2 SLP090 T01220044 10122 20072 51007
  • 221653Z AUTO 36014G22KT 10SM FEW033 OVC090 11/04 A2983 RMK AO2 PK WND 34026/1628 SLP091 T01110039

TAF KBNO
Valid from the 22 at 18:00 until the 23 at 18:00 UTC


221720Z 2218/2318 32020G30KT P6SM VCSH OVC040
FM230300 33015KT P6SM BKN050
FM230700 30010KT P6SM BKN100 BKN250
KZLC FIR / North America



MET'MAP, your aeronautical weather chart ! - Copyright ORBIFLY December 2007 - Disclaimer

ORBIFLY MET'MAP TEAM :

Programming & Development : Alexandra Zaïnal
Concept & Development : Baudouin d'Aumeries
Co-Development & Prog : Marc-Olivier Méhu
Technical & hardware support : Manuel Goepfert

Contact : metmap@orbifly.com




SOURCES & CREDITS :

   NOAA       Earth
Advisory